Chitral Weather



Chitral's Current Weather

Temprature -12.03o overcast clouds

overcast clouds

Rain: 0 %

Min Temprature-12.03o
Max Temprature-12.03o
Humidity66
Wind Speed2.74 m/h
Sun Rise07:17:17
Sun Set17:33:18
Current Time: 27-Jan-2020 18:27:14
Lat/Lon: 35.85, 71.79




Chitral's Geo Location



Chitral's Weather Forecast

Time Overall Temp Min Temp Max Temp Humidity Wind Speed Rain
27-Jan-2020 (Mon)
20:00:00 overcast clouds -14.000 -14.000 -14.000 48 2.45 m/h 0 %
23:00:00 broken clouds -14.840 -14.840 -14.840 43 3.2 m/h 0 %
28-Jan-2020 (Tue)
02:00:00 few clouds -16.250 -16.250 -16.250 41 3.31 m/h 0 %
05:00:00 few clouds -17.040 -17.040 -17.040 40 3.85 m/h 0 %
08:00:00 few clouds -16.620 -16.620 -16.620 42 3.79 m/h 0 %
11:00:00 few clouds -10.930 -10.930 -10.930 59 4.23 m/h 0 %
14:00:00 broken clouds -8.740 -8.740 -8.740 66 4.12 m/h 0 %
17:00:00 broken clouds -11.180 -11.180 -11.180 64 4.02 m/h 0 %
20:00:00 overcast clouds -12.600 -12.600 -12.600 46 3.01 m/h 0 %
23:00:00 overcast clouds -13.060 -13.060 -13.060 43 4.24 m/h 0 %
29-Jan-2020 (Wed)
02:00:00 overcast clouds -13.510 -13.510 -13.510 46 4.94 m/h 0 %
05:00:00 overcast clouds -14.740 -14.740 -14.740 43 4.88 m/h 0 %
08:00:00 overcast clouds -14.510 -14.510 -14.510 45 4.51 m/h 0 %
11:00:00 overcast clouds -9.940 -9.940 -9.940 60 3.14 m/h 0 %
14:00:00 broken clouds -7.660 -7.660 -7.660 59 1.1 m/h 0 %
17:00:00 broken clouds -11.500 -11.500 -11.500 70 0.3 m/h 0 %
20:00:00 overcast clouds -12.580 -12.580 -12.580 61 2.07 m/h 0 %
23:00:00 scattered clouds -13.980 -13.980 -13.980 54 2.73 m/h 0 %
30-Jan-2020 (Thu)
02:00:00 clear sky -14.470 -14.470 -14.470 53 3.33 m/h 0 %
05:00:00 clear sky -15.120 -15.120 -15.120 52 3.53 m/h 0 %
08:00:00 clear sky -14.770 -14.770 -14.770 50 3.36 m/h 0 %
11:00:00 clear sky -9.650 -9.650 -9.650 61 2.56 m/h 0 %
14:00:00 broken clouds -7.470 -7.470 -7.470 66 1.48 m/h 0 %
17:00:00 overcast clouds -10.120 -10.120 -10.120 72 1.69 m/h 0 %
20:00:00 overcast clouds -11.330 -11.330 -11.330 66 1.97 m/h 0 %
23:00:00 overcast clouds -12.620 -12.620 -12.620 61 2.31 m/h 0 %
31-Jan-2020 (Fri)
02:00:00 overcast clouds -13.300 -13.300 -13.300 61 2.7 m/h 0 %
05:00:00 overcast clouds -13.870 -13.870 -13.870 62 3.2 m/h 0 %
08:00:00 overcast clouds -13.290 -13.290 -13.290 63 3.19 m/h 0 %
11:00:00 overcast clouds -9.360 -9.360 -9.360 69 3.14 m/h 0 %
14:00:00 overcast clouds -7.780 -7.780 -7.780 69 2.22 m/h 0 %
17:00:00 overcast clouds -10.940 -10.940 -10.940 73 1.54 m/h 0 %
20:00:00 broken clouds -13.880 -13.880 -13.880 59 2.17 m/h 0 %
23:00:00 scattered clouds -14.710 -14.710 -14.710 53 2.73 m/h 0 %
01-Feb-2020 (Sat)
02:00:00 clear sky -15.590 -15.590 -15.590 50 3.52 m/h 0 %
05:00:00 clear sky -16.390 -16.390 -16.390 45 3.54 m/h 0 %
08:00:00 clear sky -15.840 -15.840 -15.840 43 3.75 m/h 0 %
11:00:00 clear sky -10.540 -10.540 -10.540 62 3.84 m/h 0 %
14:00:00 clear sky -7.920 -7.920 -7.920 64 1.98 m/h 0 %
17:00:00 clear sky -11.140 -11.140 -11.140 66 1.64 m/h 0 %

Famous Cities (61)